createdAt,value
2022-09-03T00:00:37.569Z,99898.28
2022-09-03T00:05:48.660Z,99887.91
2022-09-03T00:11:03.365Z,99887.03
2022-09-03T00:16:10.461Z,99881.38
2022-09-03T00:21:36.881Z,99878.53
2022-09-03T00:26:43.047Z,99868.53
2022-09-03T00:31:48.637Z,99865.91
2022-09-03T00:36:50.430Z,99863.88
2022-09-03T00:42:25.150Z,99864.63
2022-09-03T00:47:35.842Z,99863.06
2022-09-03T00:53:04.683Z,99864.03
2022-09-03T00:58:24.816Z,99865.25
2022-09-03T01:03:53.414Z,99868.13
2022-09-03T01:09:26.720Z,99862.78
2022-09-03T01:15:02.197Z,99869.03
2022-09-03T01:20:23.178Z,99865.16
2022-09-03T01:25:43.194Z,99873.03
2022-09-03T01:30:49.328Z,99860.69
2022-09-03T01:36:20.436Z,99865.06
2022-09-03T01:41:52.906Z,99872.94
2022-09-03T01:47:11.114Z,99870.78
2022-09-03T01:52:39.960Z,99881.81
2022-09-03T01:57:49.294Z,99872.25
2022-09-03T02:02:52.454Z,99878.13
2022-09-03T02:08:02.781Z,99881.81
2022-09-03T02:13:12.372Z,99876.13
2022-09-03T02:18:18.789Z,99876.84
2022-09-03T02:23:24.711Z,99882.59
2022-09-03T02:28:32.080Z,99880.09
2022-09-03T02:33:39.658Z,99879.25
2022-09-03T02:38:43.441Z,99880.59
2022-09-03T02:43:49.582Z,99882.28
2022-09-03T02:48:51.226Z,99891.69
2022-09-03T02:53:52.849Z,99882.94
2022-09-03T02:58:56.139Z,99876.56
2022-09-03T03:03:58.057Z,99872.66
2022-09-03T03:09:00.169Z,99879.59
2022-09-03T03:14:01.855Z,99869.03
2022-09-03T03:19:03.977Z,99868.63
2022-09-03T03:24:06.039Z,99866.09
2022-09-03T03:29:13.658Z,99866.63
2022-09-03T03:34:15.296Z,99874.81
2022-09-03T03:39:17.021Z,99874.66
2022-09-03T03:44:20.314Z,99876.28
2022-09-03T03:49:22.054Z,99870.63
2022-09-03T03:54:23.732Z,99869.88
2022-09-03T03:59:25.387Z,99874.94
2022-09-03T04:04:27.026Z,99874.44
2022-09-03T04:09:28.705Z,99864.66
2022-09-03T04:14:30.399Z,99867.09
2022-09-03T04:19:32.169Z,99862.59
2022-09-03T04:24:33.826Z,99859.22
2022-09-03T04:29:35.507Z,99865.88
2022-09-03T04:34:37.163Z,99864.66
2022-09-03T04:39:39.158Z,99862.66
2022-09-03T04:44:41.268Z,99860.66
2022-09-03T04:49:42.953Z,99867.25
2022-09-03T04:54:44.840Z,99874.31
2022-09-03T04:59:46.669Z,99877.19
2022-09-03T05:04:48.333Z,99881.81
2022-09-03T05:09:49.972Z,99875.81
2022-09-03T05:14:51.618Z,99873.69
2022-09-03T05:19:53.628Z,99858.50
2022-09-03T05:24:56.356Z,99866.09
2022-09-03T05:29:57.973Z,99866.72
2022-09-03T05:34:59.648Z,99869.28
2022-09-03T05:40:01.327Z,99880.09
2022-09-03T05:45:03.553Z,99883.78
2022-09-03T05:50:10.703Z,99873.06
2022-09-03T05:55:13.584Z,99878.03
2022-09-03T06:00:19.698Z,99883.69
2022-09-03T06:05:21.423Z,99886.88
2022-09-03T06:10:26.281Z,99884.66
2022-09-03T06:15:31.000Z,99880.78
2022-09-03T06:20:36.949Z,99895.31
2022-09-03T06:25:39.492Z,99890.56
2022-09-03T06:30:43.922Z,99888.91
2022-09-03T06:35:46.981Z,99896.06
2022-09-03T06:40:53.714Z,99887.72
2022-09-03T06:46:03.811Z,99891.19
2022-09-03T06:51:08.380Z,99880.31
2022-09-03T06:56:12.262Z,99879.97
2022-09-03T07:01:19.553Z,99881.63
2022-09-03T07:06:21.852Z,99872.91
2022-09-03T07:11:26.227Z,99876.06
2022-09-03T07:16:30.561Z,99869.16
2022-09-03T07:21:34.494Z,99853.50
2022-09-03T07:26:39.378Z,99851.81
2022-09-03T07:31:42.944Z,99842.75
2022-09-03T07:36:48.930Z,99840.53
2022-09-03T07:41:50.892Z,99839.06
2022-09-03T07:46:52.966Z,99830.16
2022-09-03T07:51:54.790Z,99840.84
2022-09-03T07:56:56.895Z,99830.00
2022-09-03T08:01:59.287Z,99839.63
2022-09-03T08:07:00.971Z,99837.19
2022-09-03T08:12:02.850Z,99832.66
2022-09-03T08:17:04.742Z,99825.28
2022-09-03T08:22:06.473Z,99819.97
2022-09-03T08:27:08.767Z,99825.97
2022-09-03T08:32:10.430Z,99824.25
2022-09-03T08:37:15.911Z,99809.81
2022-09-03T08:42:38.471Z,99803.38
2022-09-03T08:47:48.613Z,99807.94
2022-09-03T08:52:57.701Z,99793.06
2022-09-03T08:58:19.340Z,99790.53
2022-09-03T09:03:48.663Z,99797.72
2022-09-03T09:08:58.348Z,99781.00
2022-09-03T09:14:11.349Z,99771.44
2022-09-03T09:19:34.617Z,99776.06
2022-09-03T09:24:41.986Z,99772.66
2022-09-03T09:29:48.448Z,99771.44
2022-09-03T09:34:52.505Z,99767.34
2022-09-03T09:39:57.798Z,99761.88
2022-09-03T09:45:09.386Z,99762.75
2022-09-03T09:50:26.205Z,99753.97
2022-09-03T09:55:28.951Z,99745.84
2022-09-03T10:00:34.261Z,99745.56
2022-09-03T10:05:40.620Z,99739.56
2022-09-03T10:10:49.115Z,99732.91
2022-09-03T10:16:10.892Z,99734.72
2022-09-03T10:21:17.624Z,99728.59
2022-09-03T10:26:29.380Z,99726.97
2022-09-03T10:32:16.743Z,99721.63
2022-09-03T10:37:33.570Z,99717.69
2022-09-03T10:42:44.576Z,99718.13
2022-09-03T10:48:01.491Z,99703.28
2022-09-03T10:53:14.038Z,99693.31
2022-09-03T10:58:53.953Z,99692.81
2022-09-03T11:04:17.831Z,99704.13
2022-09-03T11:09:41.764Z,99696.31
2022-09-03T11:14:53.998Z,99678.72
2022-09-03T11:20:14.319Z,99688.09
2022-09-03T11:25:19.448Z,99683.16
2022-09-03T11:30:33.465Z,99681.59
2022-09-03T11:35:35.141Z,99675.66
2022-09-03T11:40:39.014Z,99680.03
2022-09-03T11:45:40.821Z,99663.69
2022-09-03T11:50:53.304Z,99673.31
2022-09-03T11:55:56.243Z,99672.25
2022-09-03T12:00:59.117Z,99669.03
2022-09-03T12:06:21.857Z,99661.59
2022-09-03T12:12:08.163Z,99663.03
2022-09-03T12:17:23.107Z,99665.66
2022-09-03T12:22:28.998Z,99660.72
2022-09-03T12:27:33.803Z,99657.22
2022-09-03T12:32:37.366Z,99664.56
2022-09-03T12:48:40.486Z,99637.34
2022-09-03T12:53:42.670Z,99632.13
2022-09-03T12:59:12.090Z,99642.59
2022-09-03T13:04:21.013Z,99640.63
2022-09-03T13:09:30.063Z,99621.78
2022-09-03T13:14:47.310Z,99628.91
2022-09-03T13:20:16.273Z,99629.22
2022-09-03T13:25:29.715Z,99622.94
2022-09-03T13:31:07.263Z,99614.06
2022-09-03T13:36:08.919Z,99609.94
2022-09-03T13:41:21.104Z,99614.22
2022-09-03T13:46:39.855Z,99611.78
2022-09-03T13:51:52.830Z,99605.03
2022-09-03T13:57:03.420Z,99603.34
2022-09-03T14:02:05.083Z,99608.34
2022-09-03T14:07:13.553Z,99596.72
2022-09-03T14:12:23.902Z,99593.47
2022-09-03T14:17:39.586Z,99594.09
2022-09-03T14:23:03.151Z,99596.50
2022-09-03T14:28:20.159Z,99589.56
2022-09-03T14:33:38.568Z,99597.34
2022-09-03T14:38:46.302Z,99601.97
2022-09-03T14:44:06.487Z,99604.28
2022-09-03T14:49:37.045Z,99605.09
2022-09-03T14:55:04.747Z,99586.66
2022-09-03T15:00:19.945Z,99596.41
2022-09-03T15:05:43.262Z,99594.34
2022-09-03T15:11:04.784Z,99594.03
2022-09-03T15:16:30.020Z,99595.81
2022-09-03T15:21:56.067Z,99589.41
2022-09-03T15:27:12.507Z,99582.13
2022-09-03T15:32:37.821Z,99586.50
2022-09-03T15:37:46.779Z,99599.59
2022-09-03T15:42:53.607Z,99593.84
2022-09-03T15:48:01.761Z,99597.72
2022-09-03T15:53:22.556Z,99603.16
2022-09-03T15:58:38.202Z,99595.53
2022-09-03T16:03:59.699Z,99602.25
2022-09-03T16:09:22.660Z,99604.81
2022-09-03T16:15:02.686Z,99600.63
2022-09-03T16:20:10.415Z,99593.66
2022-09-03T16:25:23.249Z,99601.78
2022-09-03T16:30:45.912Z,99596.28
2022-09-03T16:36:08.989Z,99602.09
2022-09-03T16:41:26.900Z,99607.16
2022-09-03T16:46:50.042Z,99603.41
2022-09-03T16:52:06.160Z,99603.91
2022-09-03T16:57:46.538Z,99601.63
2022-09-03T17:03:06.324Z,99609.91
2022-09-03T17:08:18.379Z,99610.03
2022-09-03T17:13:52.182Z,99597.97
2022-09-03T17:19:22.292Z,99601.09
2022-09-03T17:24:36.662Z,99607.16
2022-09-03T17:29:44.294Z,99617.38
2022-09-03T17:35:13.089Z,99622.91
2022-09-03T17:40:36.676Z,99608.41
2022-09-03T17:45:56.326Z,99613.09
2022-09-03T17:51:17.535Z,99624.28
2022-09-03T17:56:30.180Z,99628.50
2022-09-03T18:01:37.665Z,99623.28
2022-09-03T18:06:42.073Z,99631.34
2022-09-03T18:12:09.566Z,99635.00
2022-09-03T18:17:19.503Z,99653.28
2022-09-03T18:22:44.775Z,99657.13
2022-09-03T18:28:19.761Z,99662.84
2022-09-03T18:33:44.256Z,99674.91
2022-09-03T18:39:04.596Z,99670.72
2022-09-03T18:44:47.033Z,99680.97
2022-09-03T18:50:37.814Z,99684.00
2022-09-03T18:56:14.169Z,99685.38
2022-09-03T19:01:52.239Z,99688.66
2022-09-03T19:07:23.877Z,99695.81
2022-09-03T19:12:59.789Z,99688.91
2022-09-03T19:18:38.854Z,99691.94
2022-09-03T19:23:58.997Z,99701.28
2022-09-03T19:29:29.172Z,99706.94
2022-09-03T19:35:14.909Z,99692.53
2022-09-03T19:40:52.623Z,99697.97
2022-09-03T19:46:16.144Z,99704.88
2022-09-03T19:51:41.397Z,99711.72
2022-09-03T19:57:02.740Z,99720.06
2022-09-03T20:02:23.471Z,99716.31
2022-09-03T20:07:43.893Z,99725.47
2022-09-03T20:12:59.263Z,99730.25
2022-09-03T20:18:17.543Z,99738.69
2022-09-03T20:23:30.486Z,99743.75
2022-09-03T20:28:55.448Z,99741.13
2022-09-03T20:34:13.900Z,99743.44
2022-09-03T20:39:36.281Z,99740.25
2022-09-03T20:44:54.263Z,99751.34
2022-09-03T20:50:20.045Z,99757.34
2022-09-03T20:55:29.574Z,99757.56
2022-09-03T21:00:50.214Z,99759.25
2022-09-03T21:06:09.506Z,99762.59
2022-09-03T21:11:16.685Z,99762.72
2022-09-03T21:16:39.122Z,99762.16
2022-09-03T21:21:52.679Z,99765.75
2022-09-03T21:27:01.655Z,99758.94
2022-09-03T21:32:10.145Z,99757.94
2022-09-03T21:37:13.578Z,99766.25
2022-09-03T21:42:30.945Z,99772.88
2022-09-03T21:47:39.638Z,99774.75
2022-09-03T21:53:15.976Z,99787.50
2022-09-03T21:58:24.140Z,99790.06
2022-09-03T22:03:25.930Z,99793.03
2022-09-03T22:08:49.262Z,99792.94
2022-09-03T22:14:07.532Z,99796.63
2022-09-03T22:19:09.207Z,99789.47
2022-09-03T22:24:42.732Z,99790.88
2022-09-03T22:29:56.770Z,99790.25
2022-09-03T22:34:58.348Z,99791.03
2022-09-03T22:40:18.277Z,99791.31
2022-09-03T22:45:40.469Z,99778.88
2022-09-03T22:50:44.894Z,99778.59
2022-09-03T22:55:58.634Z,99788.91
2022-09-03T23:01:22.028Z,99792.19
2022-09-03T23:06:33.004Z,99781.13
2022-09-03T23:11:45.401Z,99792.78
2022-09-03T23:17:14.695Z,99788.44
2022-09-03T23:22:24.502Z,99791.41
2022-09-03T23:27:53.639Z,99794.50
2022-09-03T23:32:58.732Z,99795.56
2022-09-03T23:38:12.282Z,99788.41
2022-09-03T23:43:27.438Z,99796.97
2022-09-03T23:48:47.605Z,99793.66
2022-09-03T23:54:23.946Z,99793.28
2022-09-03T23:59:44.278Z,99792.34
